Carson, Iowa
Current Conditions -  °F | °C
As of 6:55 PM on Friday 19 Dec 2014 (Local Time) from KRDK Reporting Station
Overcast Overcast  
Wind Chill: 23°   Ceiling: 600
Heat Index: 30°   Visibility: 8mi
Dew Point: 30°   Wind: 8mph
Humidity: 100%   Direction: 170°S
Pressure: 30.19"   Gusts: NA
Location:  41.24°N, 95.42°W
Report Text: KRDK 200055Z AUTO 17007KT 8SM BKN006 OVC011 M01/M01 A3019 RMK AO2
Loading
Personal Weather Stations






























Interactive Weather Map New forecast layout! Learn more

10-Day Weather Forecast

Advertisements
Track Severe Weather on mobile